Terminal Aerodrome Forecast
Issued by NWS

Home | Current Version | Previous Version | Text Only | Print | Product List | Glossary On
Versions: 1 2 3 4 5 6 7 8 9 10 11 12 13 14 15 16 17 18 19 20 21 22 23 24 25 26 27 28 29 30 31 32 33 34 35 36
000
FTPA31 PHFO 211300 AAA
TAFOGG
TAF AMD
PHOG 211345Z 2114/2212 06010KT P6SM VCSH SCT025 BKN040
      TEMPO 2114/2118 BKN025
     FM212100 05015G23KT P6SM VCSH SCT025 BKN040
     FM220700 05012KT P6SM VCSH FEW025 SCT040
      AMD LTD TO WX VIS AND WIND TIL 211600=

USA.gov is the U.S. government's official web portal to all federal, state and local government web resources and services.